Edmore, Michigan
Current Conditions -  °F | °C
As of 8:11 PM on Friday 28 Nov 2014 (Local Time) from KAMN Reporting Station
Overcast Overcast  
Wind Chill: 17°   Ceiling: 4400
Heat Index: 24°   Visibility: 10mi
Dew Point: 22°   Wind: 6mph
Humidity: 91%   Direction: 130°SE
Pressure: 30.09"   Gusts: NA
Location:  43.41°N, 85.04°W
Report Text: KAMN 290111Z AUTO 13005KT 10SM OVC044 M04/M05 A3009 RMK AO2 T10431055
Loading
Personal Weather Stations






























Interactive Weather Map New forecast layout! Learn more

10-Day Weather Forecast

Advertisements
Track Severe Weather on mobile